Time;durP1;ratioP1;P1;durP2;ratioP2;P2;SDS_P1;SDS_P2;PMS_P1;PMS_P2;Temp;Humidity;BMP_temperature;BMP_pressure;BME280_temperature;BME280_humidity;BME280_pressure;Samples;Min_cycle;Max_cycle;Signal;HPM_P1;HPM_P2
2023/08/04 00:01:30;;;;;;;12.27;8.85;;;20.90;99.90;;;;;;4144803;28;20096;-61
2023/08/04 00:03:31;;;;;;;9.82;8.27;;;20.90;99.90;;;;;;4144613;28;20172;-59
2023/08/04 00:05:32;;;;;;;9.93;8.90;;;20.80;99.90;;;;;;4144511;28;20072;-60
2023/08/04 00:07:34;;;;;;;9.43;8.35;;;20.70;99.90;;;;;;4145514;28;20080;-60
2023/08/04 00:09:35;;;;;;;12.93;9.38;;;20.70;99.90;;;;;;4144220;28;20034;-61
2023/08/04 00:11:36;;;;;;;12.35;9.75;;;20.60;99.90;;;;;;4144713;28;20348;-60
2023/08/04 00:13:37;;;;;;;10.55;9.45;;;20.60;99.90;;;;;;4143683;28;20120;-60
2023/08/04 00:15:38;;;;;;;12.90;9.32;;;20.60;99.90;;;;;;4145791;28;20442;-60
2023/08/04 00:17:40;;;;;;;11.30;10.15;;;20.60;99.90;;;;;;4143538;28;20037;-60
2023/08/04 00:19:42;;;;;;;12.60;10.00;;;20.60;99.90;;;;;;4145413;28;20046;-60
2023/08/04 00:21:43;;;;;;;16.55;12.48;;;20.60;99.90;;;;;;4143917;28;20034;-60
2023/08/04 00:23:44;;;;;;;15.90;12.38;;;20.60;99.90;;;;;;4145217;28;20041;-61
2023/08/04 00:25:45;;;;;;;19.55;12.07;;;20.60;99.90;;;;;;4143975;28;20033;-60
2023/08/04 00:27:46;;;;;;;14.82;11.68;;;20.60;99.90;;;;;;4144923;28;20034;-61
2023/08/04 00:29:48;;;;;;;14.02;11.80;;;20.60;99.90;;;;;;4144221;28;20046;-64
2023/08/04 00:31:49;;;;;;;16.60;12.05;;;20.60;99.90;;;;;;4144810;28;20046;-61
2023/08/04 00:33:50;;;;;;;13.57;10.32;;;20.60;99.90;;;;;;4145318;28;20057;-60
2023/08/04 00:35:51;;;;;;;13.93;10.27;;;20.60;99.90;;;;;;4143972;28;20038;-61
2023/08/04 00:37:52;;;;;;;16.08;10.05;;;20.70;99.90;;;;;;4145407;28;20341;-62
2023/08/04 00:39:53;;;;;;;12.57;9.50;;;20.70;99.90;;;;;;4144012;28;20085;-61
2023/08/04 00:41:54;;;;;;;12.43;8.40;;;20.60;99.90;;;;;;4144415;28;20550;-61
2023/08/04 00:43:55;;;;;;;11.40;8.77;;;20.50;99.90;;;;;;4144281;28;20847;-60
2023/08/04 00:45:56;;;;;;;11.40;9.27;;;20.50;99.90;;;;;;4144916;28;20115;-61
2023/08/04 00:47:59;;;;;;;11.52;9.80;;;20.50;99.90;;;;;;4143802;28;20034;-60
2023/08/04 00:50:00;;;;;;;17.15;9.48;;;20.40;99.90;;;;;;4144835;28;20026;-61
2023/08/04 00:52:01;;;;;;;11.43;9.10;;;20.40;99.90;;;;;;4143463;28;20115;-60
2023/08/04 00:54:04;;;;;;;13.00;9.60;;;20.40;99.90;;;;;;4145127;28;20095;-61
2023/08/04 00:56:05;;;;;;;15.90;8.93;;;20.30;99.90;;;;;;4142282;28;20085;-62
2023/08/04 00:58:06;;;;;;;13.80;9.90;;;20.30;99.90;;;;;;4144700;28;20034;-62
2023/08/04 01:00:07;;;;;;;11.60;8.55;;;20.30;99.90;;;;;;4144330;28;20490;-62
2023/08/04 01:02:09;;;;;;;13.25;9.82;;;20.30;99.90;;;;;;4144395;28;20038;-63
2023/08/04 01:04:10;;;;;;;13.38;9.82;;;20.30;99.90;;;;;;4144921;28;20144;-62
2023/08/04 01:06:19;;;;;;;14.60;10.00;;;20.30;99.90;;;;;;4143839;28;20103;-61
2023/08/04 01:08:25;;;;;;;12.20;10.45;;;20.20;99.90;;;;;;4144879;28;20423;-61
2023/08/04 01:11:08;;;;;;;15.05;10.15;;;20.20;99.90;;;;;;4143813;28;20100;-60
2023/08/04 01:13:13;;;;;;;16.42;9.88;;;20.20;99.90;;;;;;4174243;28;20079;-62
2023/08/04 01:15:16;;;;;;;12.90;9.88;;;20.20;99.90;;;;;;4152270;28;20092;-61
2023/08/04 01:17:29;;;;;;;13.13;10.13;;;20.20;99.90;;;;;;4137462;28;20034;-61
2023/08/04 01:19:30;;;;;;;13.05;10.00;;;20.20;99.90;;;;;;4141699;28;20034;-60
2023/08/04 01:21:41;;;;;;;12.30;9.27;;;20.20;99.90;;;;;;4143925;28;20042;-60
2023/08/04 01:23:42;;;;;;;11.15;8.98;;;20.20;99.90;;;;;;4139060;28;20038;-60
2023/08/04 01:25:44;;;;;;;11.85;8.65;;;20.20;99.90;;;;;;4144146;28;20110;-61
2023/08/04 01:27:52;;;;;;;9.13;8.18;;;20.30;99.90;;;;;;4143255;28;20096;-60
2023/08/04 01:29:57;;;;;;;9.60;8.60;;;20.30;99.90;;;;;;4142915;28;20449;-59
2023/08/04 01:31:59;;;;;;;9.13;7.50;;;20.30;99.90;;;;;;4142539;28;20161;-60
2023/08/04 01:34:01;;;;;;;11.73;8.30;;;20.30;99.90;;;;;;4145027;28;20026;-59
2023/08/04 01:36:02;;;;;;;9.30;8.35;;;20.20;99.90;;;;;;4143234;28;20371;-61
2023/08/04 01:38:03;;;;;;;11.15;9.10;;;20.20;99.90;;;;;;4144514;28;20092;-60
2023/08/04 01:40:05;;;;;;;13.05;9.80;;;20.20;99.90;;;;;;4143249;28;20033;-61
2023/08/04 01:42:06;;;;;;;13.80;9.13;;;20.20;99.90;;;;;;4144452;28;20045;-60
2023/08/04 01:44:08;;;;;;;9.70;8.63;;;20.20;99.90;;;;;;4143309;28;20033;-61
2023/08/04 01:46:10;;;;;;;11.10;9.25;;;20.10;99.90;;;;;;4144448;28;20533;-61
2023/08/04 01:48:11;;;;;;;10.00;8.30;;;20.10;99.90;;;;;;4142915;28;20034;-61
2023/08/04 01:50:12;;;;;;;9.75;8.52;;;20.10;99.90;;;;;;4143586;28;20544;-60
2023/08/04 01:52:13;;;;;;;10.35;9.27;;;20.10;99.90;;;;;;4142233;28;20029;-61
2023/08/04 01:54:14;;;;;;;10.70;9.02;;;20.00;99.90;;;;;;4147114;28;20030;-60
2023/08/04 01:56:15;;;;;;;11.70;8.77;;;20.00;99.90;;;;;;4145881;28;20494;-61
2023/08/04 01:58:16;;;;;;;9.57;8.10;;;19.90;99.90;;;;;;4146792;28;20034;-61
2023/08/04 02:00:18;;;;;;;10.73;8.02;;;19.90;99.90;;;;;;4146859;28;20477;-62
2023/08/04 02:02:19;;;;;;;8.55;7.65;;;19.80;99.90;;;;;;4146425;28;20046;-63
2023/08/04 02:04:20;;;;;;;8.07;6.95;;;19.80;99.90;;;;;;4147003;28;20025;-61
2023/08/04 02:06:22;;;;;;;9.80;8.80;;;19.70;99.90;;;;;;4145915;28;20404;-59
2023/08/04 02:08:23;;;;;;;9.35;8.35;;;19.80;99.90;;;;;;4147476;28;20038;-62
2023/08/04 02:10:24;;;;;;;10.15;8.18;;;19.70;99.90;;;;;;4146132;28;20029;-60
2023/08/04 02:12:25;;;;;;;10.98;9.10;;;19.70;99.90;;;;;;4147180;28;20466;-57
2023/08/04 02:14:29;;;;;;;17.25;10.63;;;19.60;99.90;;;;;;4145979;28;20438;-61
2023/08/04 02:16:30;;;;;;;26.20;18.75;;;19.60;99.90;;;;;;4147380;28;20110;-60
2023/08/04 02:18:31;;;;;;;25.60;18.30;;;19.60;99.90;;;;;;4146318;28;20064;-60
2023/08/04 02:20:32;;;;;;;28.50;19.65;;;19.60;99.90;;;;;;4146735;28;20075;-60
2023/08/04 02:22:33;;;;;;;23.73;18.67;;;19.60;99.90;;;;;;4145880;28;20034;-60
2023/08/04 02:24:34;;;;;;;24.63;16.27;;;19.60;99.90;;;;;;4144994;28;20111;-61
2023/08/04 02:26:35;;;;;;;21.65;14.70;;;19.60;99.90;;;;;;4145835;28;20080;-61
2023/08/04 02:28:36;;;;;;;20.30;13.88;;;19.60;99.90;;;;;;4146170;28;20497;-60
2023/08/04 02:30:38;;;;;;;12.27;9.85;;;19.70;99.90;;;;;;4146818;28;20548;-62
2023/08/04 02:32:39;;;;;;;15.70;11.98;;;19.70;99.90;;;;;;4146122;28;20189;-62
2023/08/04 02:34:40;;;;;;;23.50;14.32;;;19.70;99.90;;;;;;4147539;28;20098;-61
2023/08/04 02:36:41;;;;;;;13.65;9.93;;;19.70;99.90;;;;;;4145476;28;20025;-61
2023/08/04 02:38:42;;;;;;;12.88;10.15;;;19.70;99.90;;;;;;4146814;28;20079;-60
2023/08/04 02:40:43;;;;;;;12.55;10.55;;;19.70;99.90;;;;;;4145410;28;20409;-61
2023/08/04 02:42:44;;;;;;;13.90;11.07;;;19.70;99.90;;;;;;4146675;28;20172;-60
2023/08/04 02:44:45;;;;;;;14.38;11.35;;;19.70;99.90;;;;;;4145374;28;20477;-60
2023/08/04 02:46:46;;;;;;;11.23;10.10;;;19.70;99.90;;;;;;4146801;28;20052;-60
2023/08/04 02:48:48;;;;;;;16.67;11.50;;;19.70;99.90;;;;;;4145498;28;20093;-60
2023/08/04 02:51:10;;;;;;;14.13;11.65;;;19.70;99.90;;;;;;4146977;28;20041;-60
2023/08/04 02:53:11;;;;;;;14.55;11.65;;;19.70;99.90;;;;;;4129294;28;20383;-60
2023/08/04 02:55:13;;;;;;;19.77;12.77;;;19.70;99.90;;;;;;4130356;28;20418;-60
2023/08/04 02:57:14;;;;;;;12.00;10.75;;;19.70;99.90;;;;;;4158292;28;20555;-59
2023/08/04 02:59:15;;;;;;;15.50;10.23;;;19.70;99.90;;;;;;4146483;28;20056;-62
2023/08/04 03:01:16;;;;;;;12.57;10.27;;;19.60;99.90;;;;;;4145281;28;20049;-62
2023/08/04 03:03:18;;;;;;;13.32;9.63;;;19.60;99.90;;;;;;4145942;28;20497;-62
2023/08/04 03:05:19;;;;;;;11.77;8.77;;;19.50;99.90;;;;;;4144722;28;20070;-64
2023/08/04 03:07:20;;;;;;;14.45;11.13;;;19.40;99.90;;;;;;4144939;28;20042;-61
2023/08/04 03:09:22;;;;;;;12.52;10.43;;;19.30;99.90;;;;;;4146194;28;20112;-62
2023/08/04 03:11:24;;;;;;;12.30;10.48;;;19.20;99.90;;;;;;4145385;28;20509;-61
2023/08/04 03:13:25;;;;;;;14.25;10.70;;;19.20;99.90;;;;;;4146097;28;20042;-63
2023/08/04 03:15:26;;;;;;;16.73;12.18;;;19.10;99.90;;;;;;4144665;28;20037;-61
2023/08/04 03:17:28;;;;;;;15.70;12.18;;;19.10;99.90;;;;;;4146418;28;20032;-61
2023/08/04 03:19:29;;;;;;;18.17;10.85;;;19.10;99.90;;;;;;4143750;28;20053;-61
2023/08/04 03:21:30;;;;;;;15.10;11.43;;;19.10;99.90;;;;;;4145600;28;20042;-61
2023/08/04 03:23:32;;;;;;;12.55;10.75;;;19.20;99.90;;;;;;4144620;28;20080;-60
2023/08/04 03:25:33;;;;;;;12.32;11.02;;;19.20;99.90;;;;;;4146070;28;20030;-60
2023/08/04 03:27:34;;;;;;;15.70;11.20;;;19.40;99.90;;;;;;4143621;28;20556;-60
2023/08/04 03:29:35;;;;;;;17.63;10.60;;;19.50;99.90;;;;;;4146070;28;20084;-61
2023/08/04 03:31:36;;;;;;;14.23;9.90;;;19.60;99.90;;;;;;4145207;28;20029;-61
2023/08/04 03:33:38;;;;;;;17.17;10.30;;;19.70;99.90;;;;;;4145229;28;20064;-61
2023/08/04 03:35:39;;;;;;;11.75;10.07;;;19.90;99.90;;;;;;4145882;28;21177;-60
2023/08/04 03:37:40;;;;;;;15.60;10.55;;;19.90;99.90;;;;;;4145204;28;20445;-60
2023/08/04 03:39:41;;;;;;;14.25;9.50;;;20.00;99.90;;;;;;4145563;28;20050;-62
2023/08/04 03:41:42;;;;;;;14.88;9.98;;;20.20;99.90;;;;;;4144561;28;20045;-61
2023/08/04 03:43:44;;;;;;;14.25;9.95;;;20.50;99.90;;;;;;4144771;28;20049;-62
2023/08/04 03:45:45;;;;;;;14.07;10.30;;;20.70;99.90;;;;;;4144933;28;20038;-61
2023/08/04 03:47:46;;;;;;;12.95;11.10;;;20.80;99.90;;;;;;4145766;28;20045;-61
2023/08/04 03:49:47;;;;;;;13.50;11.77;;;20.90;99.90;;;;;;4144281;28;20022;-61
2023/08/04 03:51:48;;;;;;;16.92;12.48;;;20.80;99.90;;;;;;4144857;28;20025;-61
2023/08/04 03:53:50;;;;;;;17.33;11.60;;;20.80;99.90;;;;;;4144759;28;20064;-65
2023/08/04 03:55:51;;;;;;;13.95;11.82;;;20.90;99.90;;;;;;4145654;28;20498;-64
2023/08/04 03:57:52;;;;;;;13.30;11.65;;;21.00;99.90;;;;;;4144147;28;20025;-60
2023/08/04 03:59:53;;;;;;;15.73;10.70;;;21.20;99.90;;;;;;4144594;28;20119;-60
2023/08/04 04:01:54;;;;;;;13.48;10.70;;;21.30;99.90;;;;;;4143956;28;20049;-60
2023/08/04 04:03:55;;;;;;;14.68;10.45;;;21.40;99.90;;;;;;4145233;28;20034;-60
2023/08/04 04:05:56;;;;;;;16.35;10.15;;;21.60;99.90;;;;;;4145332;28;20030;-60
2023/08/04 04:07:58;;;;;;;15.65;10.80;;;21.90;99.90;;;;;;4145004;28;20033;-81
2023/08/04 04:09:59;;;;;;;16.10;10.30;;;22.10;99.90;;;;;;4145241;28;20050;-61
2023/08/04 04:12:00;;;;;;;12.65;9.65;;;22.50;99.90;;;;;;4144109;28;20088;-62
2023/08/04 04:14:01;;;;;;;12.93;9.55;;;22.80;99.90;;;;;;4145820;28;20080;-62
2023/08/04 04:16:02;;;;;;;15.02;9.45;;;23.20;99.90;;;;;;4144081;28;20100;-61
2023/08/04 04:18:04;;;;;;;15.05;8.57;;;23.40;99.90;;;;;;4144823;28;20120;-63
2023/08/04 04:20:06;;;;;;;12.38;7.63;;;23.60;99.90;;;;;;4142730;28;20042;-61
2023/08/04 04:22:09;;;;;;;15.85;8.18;;;23.70;99.90;;;;;;4145603;28;20100;-59
2023/08/04 04:24:11;;;;;;;17.55;9.05;;;23.70;99.90;;;;;;4144740;28;20525;-61
2023/08/04 04:26:12;;;;;;;12.27;8.38;;;23.80;99.90;;;;;;4145431;28;20056;-61
2023/08/04 04:28:13;;;;;;;27.52;9.63;;;23.80;99.90;;;;;;4144384;28;20034;-61
2023/08/04 04:30:14;;;;;;;16.25;9.40;;;23.90;99.90;;;;;;4145342;28;20080;-61
2023/08/04 04:32:15;;;;;;;14.05;8.88;;;24.10;99.90;;;;;;4144340;28;20397;-60
2023/08/04 04:34:16;;;;;;;13.77;8.65;;;24.50;99.90;;;;;;4144656;28;20038;-61
2023/08/04 04:36:18;;;;;;;13.93;9.02;;;24.50;99.90;;;;;;4143794;28;20112;-61
2023/08/04 04:38:19;;;;;;;15.75;8.02;;;24.60;99.90;;;;;;4144317;28;20045;-61
2023/08/04 04:40:20;;;;;;;11.38;7.97;;;25.00;99.90;;;;;;4133648;28;20196;-62
2023/08/04 04:42:21;;;;;;;15.02;8.20;;;25.30;99.90;;;;;;4128405;28;20042;-61
2023/08/04 04:44:22;;;;;;;17.25;8.23;;;25.90;99.90;;;;;;4135591;28;20042;-60
2023/08/04 04:46:23;;;;;;;18.13;9.00;;;26.60;99.90;;;;;;4144264;28;20046;-61
2023/08/04 04:48:24;;;;;;;15.13;7.63;;;27.10;99.90;;;;;;4145621;28;20037;-61
2023/08/04 04:50:26;;;;;;;16.05;10.95;;;27.20;99.90;;;;;;4144487;28;20386;-61
2023/08/04 04:52:35;;;;;;;15.07;9.60;;;27.60;99.90;;;;;;4138908;28;20639;-59
2023/08/04 04:54:38;;;;;;;14.13;8.40;;;28.20;99.90;;;;;;4144204;28;20466;-60
2023/08/04 04:56:39;;;;;;;11.02;7.20;;;28.70;99.90;;;;;;4143331;28;20053;-60
2023/08/04 04:58:41;;;;;;;19.10;7.30;;;28.80;99.90;;;;;;4143673;28;20030;-61
2023/08/04 05:00:42;;;;;;;13.23;7.90;;;28.80;99.90;;;;;;4144692;28;20100;-59
2023/08/04 05:02:43;;;;;;;12.27;7.60;;;29.10;99.90;;;;;;4143635;28;20033;-58
2023/08/04 05:04:45;;;;;;;19.63;8.68;;;29.10;99.90;;;;;;4144603;28;20038;-60
2023/08/04 05:06:46;;;;;;;23.67;10.45;;;29.00;99.90;;;;;;4144319;28;20033;-59
2023/08/04 05:08:47;;;;;;;19.15;9.38;;;28.70;99.90;;;;;;4144512;28;20042;-60
2023/08/04 05:10:52;;;;;;;18.33;8.63;;;28.30;99.90;;;;;;4144236;28;20437;-56
2023/08/04 05:12:53;;;;;;;13.90;8.43;;;28.00;99.90;;;;;;4144134;28;20406;-60
2023/08/04 05:14:54;;;;;;;15.25;8.15;;;27.80;99.90;;;;;;4144563;28;20427;-60
2023/08/04 05:16:56;;;;;;;14.10;8.15;;;27.50;99.90;;;;;;4143887;28;20108;-60
2023/08/04 05:18:57;;;;;;;14.02;8.10;;;27.60;99.90;;;;;;4144603;28;20042;-60
2023/08/04 05:20:58;;;;;;;21.77;9.13;;;27.50;99.90;;;;;;4143238;28;20128;-60
2023/08/04 05:22:59;;;;;;;26.85;9.38;;;27.50;99.90;;;;;;4144467;28;20433;-60
2023/08/04 05:25:01;;;;;;;24.25;8.73;;;28.10;99.90;;;;;;4142274;28;20080;-61
2023/08/04 05:27:04;;;;;;;31.65;10.77;;;28.50;99.90;;;;;;4144368;28;20034;-60
2023/08/04 05:29:05;;;;;;;27.55;9.98;;;29.10;99.90;;;;;;4146211;28;20026;-61
2023/08/04 05:31:08;;;;;;;33.42;11.23;;;29.50;99.90;;;;;;4147842;28;20026;-61
2023/08/04 05:33:09;;;;;;;49.22;13.15;;;29.40;99.90;;;;;;4146681;28;20041;-63
2023/08/04 05:35:10;;;;;;;27.70;10.18;;;29.60;99.90;;;;;;4147547;28;20042;-63
2023/08/04 05:37:11;;;;;;;37.92;11.50;;;29.60;99.90;;;;;;4146907;28;20088;-62
2023/08/04 05:39:12;;;;;;;22.35;10.45;;;29.50;99.90;;;;;;4147173;28;20491;-60
2023/08/04 05:41:13;;;;;;;30.10;10.57;;;29.10;99.90;;;;;;4146325;28;20054;-61
2023/08/04 05:43:15;;;;;;;28.42;10.18;;;29.60;99.90;;;;;;4145531;28;20108;-62
2023/08/04 05:45:16;;;;;;;24.52;10.65;;;29.50;99.90;;;;;;4147319;28;20026;-60
2023/08/04 05:47:19;;;;;;;34.28;10.65;;;29.50;99.90;;;;;;4146705;28;20026;-60
2023/08/04 05:49:20;;;;;;;21.80;9.40;;;30.10;99.90;;;;;;4145575;28;20490;-62
2023/08/04 05:51:21;;;;;;;18.90;10.95;;;30.50;99.90;;;;;;4146325;28;20374;-65
2023/08/04 05:53:23;;;;;;;22.00;10.52;;;30.70;99.90;;;;;;4147387;28;20073;-62
2023/08/04 05:55:24;;;;;;;28.15;10.68;;;31.00;99.90;;;;;;4146358;28;20046;-60
2023/08/04 05:57:25;;;;;;;29.08;15.63;;;30.60;99.90;;;;;;4147740;28;20479;-59
2023/08/04 05:59:26;;;;;;;22.27;11.60;;;30.60;99.90;;;;;;4146256;28;20021;-59
2023/08/04 06:01:28;;;;;;;14.93;9.45;;;30.20;99.90;;;;;;4147480;28;20109;-60
2023/08/04 06:03:29;;;;;;;12.20;7.40;;;29.80;99.90;;;;;;4146328;28;20083;-61
2023/08/04 06:05:30;;;;;;;14.18;7.68;;;29.40;99.90;;;;;;4147881;28;20037;-60
2023/08/04 06:07:31;;;;;;;16.25;8.10;;;28.70;99.90;;;;;;4146854;28;20490;-60
2023/08/04 06:09:33;;;;;;;14.38;7.28;;;28.30;99.90;;;;;;4147273;28;20034;-59
2023/08/04 06:11:34;;;;;;;10.13;7.20;;;28.40;99.90;;;;;;4146135;28;20022;-59
2023/08/04 06:13:36;;;;;;;12.02;8.00;;;28.30;99.90;;;;;;4146758;28;20588;-57
2023/08/04 06:15:37;;;;;;;12.98;7.97;;;27.80;99.90;;;;;;4146724;28;20026;-59
2023/08/04 06:17:38;;;;;;;9.85;6.85;;;27.30;99.90;;;;;;4146554;28;21122;-61
2023/08/04 06:19:42;;;;;;;11.40;8.27;;;27.10;99.90;;;;;;4147011;28;20076;-57
2023/08/04 06:21:43;;;;;;;11.20;8.48;;;26.80;99.90;;;;;;4146179;28;20045;-63
2023/08/04 06:23:47;;;;;;;16.20;9.43;;;26.70;99.90;;;;;;4147173;28;20038;-60
2023/08/04 06:25:48;;;;;;;19.48;9.55;;;26.50;99.90;;;;;;4145731;28;20077;-60
2023/08/04 06:27:50;;;;;;;26.20;8.95;;;26.40;99.90;;;;;;4146926;28;20033;-60
2023/08/04 06:29:51;;;;;;;21.13;9.65;;;26.40;99.90;;;;;;4145972;28;20540;-59
2023/08/04 06:31:52;;;;;;;17.88;9.52;;;26.20;99.90;;;;;;4145586;28;20041;-59
2023/08/04 06:33:53;;;;;;;16.33;10.05;;;26.00;99.90;;;;;;4145905;28;20042;-60
2023/08/04 06:35:54;;;;;;;13.55;9.45;;;25.80;99.90;;;;;;4147377;28;20038;-59
2023/08/04 06:37:56;;;;;;;20.98;9.63;;;25.70;99.90;;;;;;4145727;28;20034;-60
2023/08/04 06:39:58;;;;;;;16.98;10.13;;;25.80;99.90;;;;;;4145365;28;20111;-60
2023/08/04 06:41:59;;;;;;;20.52;9.73;;;25.70;99.90;;;;;;4145743;28;20038;-59
2023/08/04 06:44:00;;;;;;;17.98;9.65;;;25.90;99.90;;;;;;4146630;28;20042;-61
2023/08/04 06:46:01;;;;;;;19.13;10.02;;;26.10;99.90;;;;;;4146024;28;20030;-63
2023/08/04 06:48:02;;;;;;;21.38;9.75;;;26.00;99.90;;;;;;4145979;28;20050;-59
2023/08/04 06:50:04;;;;;;;12.73;9.20;;;26.10;99.90;;;;;;4146421;28;20026;-59
2023/08/04 06:52:06;;;;;;;14.60;9.82;;;26.10;99.90;;;;;;4145415;28;20392;-60
2023/08/04 06:54:07;;;;;;;16.15;10.23;;;26.40;99.90;;;;;;4146773;28;20441;-60
2023/08/04 06:56:08;;;;;;;14.02;8.95;;;26.40;99.90;;;;;;4145257;28;20046;-67
2023/08/04 06:58:09;;;;;;;17.52;9.70;;;26.50;99.90;;;;;;4146403;28;20022;-62
2023/08/04 07:00:10;;;;;;;21.23;8.85;;;26.80;99.90;;;;;;4145371;28;20038;-60
2023/08/04 07:02:12;;;;;;;17.70;9.18;;;26.80;99.90;;;;;;4146451;28;20026;-61
2023/08/04 07:04:13;;;;;;;14.40;8.57;;;26.70;99.90;;;;;;4145233;28;20538;-61
2023/08/04 07:06:14;;;;;;;12.00;8.85;;;27.10;99.90;;;;;;4146744;28;20038;-60
2023/08/04 07:08:15;;;;;;;12.70;8.88;;;27.60;99.90;;;;;;4145232;28;20085;-59
2023/08/04 07:10:17;;;;;;;11.40;8.63;;;27.80;99.90;;;;;;4146174;28;20042;-60
2023/08/04 07:12:18;;;;;;;12.82;9.38;;;27.90;99.90;;;;;;4145104;28;20033;-60
2023/08/04 07:14:19;;;;;;;11.05;8.73;;;28.00;99.90;;;;;;4145769;28;20455;-60
2023/08/04 07:16:21;;;;;;;12.88;9.07;;;28.20;99.90;;;;;;4145486;28;20536;-59
2023/08/04 07:18:23;;;;;;;16.42;8.98;;;28.40;99.90;;;;;;4145894;28;20103;-60
2023/08/04 07:20:25;;;;;;;9.52;8.30;;;28.60;99.90;;;;;;4145703;28;20123;-60
2023/08/04 07:22:26;;;;;;;12.13;8.38;;;28.70;99.90;;;;;;4144756;28;20105;-63
2023/08/04 07:24:27;;;;;;;10.80;8.55;;;28.90;99.90;;;;;;4145987;28;20026;-61
2023/08/04 07:26:28;;;;;;;12.95;8.48;;;28.80;99.90;;;;;;4144935;28;20041;-67
2023/08/04 07:28:30;;;;;;;10.70;8.38;;;29.00;99.90;;;;;;4145746;28;20096;-60
2023/08/04 07:30:32;;;;;;;8.77;7.97;;;29.20;99.90;;;;;;4144796;28;20034;-59
2023/08/04 07:32:33;;;;;;;8.63;7.72;;;29.20;99.90;;;;;;4146079;28;20046;-61
2023/08/04 07:34:34;;;;;;;13.13;7.43;;;29.10;99.90;;;;;;4144650;28;20437;-60
2023/08/04 07:36:37;;;;;;;9.18;6.95;;;29.10;99.90;;;;;;4146228;28;20091;-66
2023/08/04 07:38:38;;;;;;;8.55;7.78;;;29.30;99.90;;;;;;4144551;28;20080;-58
2023/08/04 07:40:39;;;;;;;10.25;7.82;;;29.40;99.90;;;;;;4145583;28;20414;-61
2023/08/04 07:42:41;;;;;;;14.80;7.90;;;29.70;99.90;;;;;;4144781;28;21076;-60
2023/08/04 07:44:42;;;;;;;7.32;6.63;;;29.80;99.90;;;;;;4145669;28;20104;-60
2023/08/04 07:46:44;;;;;;;7.75;7.05;;;30.00;99.90;;;;;;4144919;28;20034;-57
2023/08/04 07:48:45;;;;;;;7.35;6.72;;;30.00;99.90;;;;;;4145522;28;20092;-60
2023/08/04 07:50:48;;;;;;;7.93;7.13;;;30.10;99.90;;;;;;4144515;28;20111;-60
2023/08/04 07:52:49;;;;;;;13.18;8.05;;;30.20;99.90;;;;;;4144925;28;20076;-60
2023/08/04 07:54:50;;;;;;;9.95;6.93;;;30.10;99.90;;;;;;4145259;28;20646;-58
2023/08/04 07:56:51;;;;;;;8.38;6.65;;;30.30;99.90;;;;;;4143802;28;20054;-60
2023/08/04 07:58:52;;;;;;;8.35;7.35;;;30.10;99.90;;;;;;4145652;28;20046;-59
2023/08/04 08:00:54;;;;;;;9.55;6.45;;;30.50;99.90;;;;;;4144302;28;20041;-57
2023/08/04 08:02:55;;;;;;;6.70;5.90;;;30.90;99.90;;;;;;4145653;28;20088;-60
2023/08/04 08:04:56;;;;;;;10.52;5.22;;;31.10;99.90;;;;;;4144570;28;20470;-61
2023/08/04 08:06:57;;;;;;;6.97;5.95;;;31.40;99.90;;;;;;4145997;28;20029;-60
2023/08/04 08:08:58;;;;;;;6.13;5.32;;;31.70;99.90;;;;;;4144140;28;20364;-61
2023/08/04 08:11:02;;;;;;;7.90;5.63;;;31.80;99.90;;;;;;4145540;28;20091;-60
2023/08/04 08:13:03;;;;;;;5.43;4.93;;;31.80;99.90;;;;;;4144497;28;20037;-58
2023/08/04 08:15:05;;;;;;;6.57;4.95;;;31.90;99.90;;;;;;4145027;28;20081;-60
2023/08/04 08:17:06;;;;;;;6.32;5.13;;;31.90;99.90;;;;;;4144760;28;20049;-59
2023/08/04 08:19:09;;;;;;;6.82;5.25;;;31.90;99.90;;;;;;4145220;28;20540;-61
2023/08/04 08:21:11;;;;;;;6.25;5.47;;;31.90;99.90;;;;;;4144744;28;20445;-61
2023/08/04 08:23:12;;;;;;;8.82;4.95;;;31.90;99.90;;;;;;4144507;28;20026;-61
2023/08/04 08:25:13;;;;;;;5.88;4.90;;;32.00;99.90;;;;;;4144693;28;20050;-60
2023/08/04 08:27:14;;;;;;;4.82;4.28;;;32.10;99.90;;;;;;4144077;28;20030;-59
2023/08/04 08:29:15;;;;;;;5.85;5.35;;;32.00;99.90;;;;;;4145159;28;20046;-59
2023/08/04 08:31:16;;;;;;;5.68;4.72;;;32.00;99.90;;;;;;4143794;28;20018;-60
2023/08/04 08:33:17;;;;;;;10.07;5.15;;;31.90;99.90;;;;;;4145178;28;20461;-58
2023/08/04 08:35:19;;;;;;;8.43;4.68;;;31.90;99.90;;;;;;4143832;28;20030;-60
2023/08/04 08:37:20;;;;;;;7.28;5.10;;;32.00;99.90;;;;;;4145445;28;20581;-60
2023/08/04 08:39:21;;;;;;;5.15;4.65;;;32.00;99.90;;;;;;4143478;28;20030;-60
2023/08/04 08:41:23;;;;;;;5.55;4.38;;;31.90;99.90;;;;;;4144661;28;20108;-59
2023/08/04 08:43:24;;;;;;;4.75;4.22;;;31.70;99.90;;;;;;4143804;28;20092;-60
2023/08/04 08:45:29;;;;;;;8.70;4.97;;;31.60;99.90;;;;;;4144846;28;20556;-59
2023/08/04 08:47:35;;;;;;;6.15;4.85;;;31.70;99.90;;;;;;4143682;28;20478;-61
2023/08/04 08:49:45;;;;;;;5.15;4.65;;;31.70;99.90;;;;;;4144566;28;20528;-62
2023/08/04 08:51:51;;;;;;;5.07;4.68;;;31.80;99.90;;;;;;4143724;28;20389;-60
2023/08/04 08:53:53;;;;;;;4.97;4.55;;;31.80;99.90;;;;;;4144784;28;20046;-61
2023/08/04 08:55:54;;;;;;;5.55;5.05;;;31.80;99.90;;;;;;4143881;28;20046;-60
2023/08/04 08:57:57;;;;;;;9.55;4.63;;;31.80;99.80;;;;;;4143943;28;20471;-60
2023/08/04 08:59:59;;;;;;;6.65;4.80;;;31.80;99.80;;;;;;4144186;28;20073;-60
2023/08/04 09:02:03;;;;;;;5.47;4.80;;;31.80;99.80;;;;;;4143270;28;20112;-59
2023/08/04 09:04:05;;;;;;;5.20;4.65;;;31.90;99.90;;;;;;4144079;28;20029;-60
2023/08/04 09:06:06;;;;;;;5.47;4.60;;;32.00;99.80;;;;;;4143692;28;20470;-59
2023/08/04 09:08:07;;;;;;;7.40;4.32;;;31.80;99.80;;;;;;4144733;28;20532;-59
2023/08/04 09:10:09;;;;;;;6.55;4.80;;;31.90;99.70;;;;;;4143676;28;20046;-60
2023/08/04 09:12:10;;;;;;;5.32;4.57;;;31.80;99.40;;;;;;4144638;28;20427;-59
2023/08/04 09:14:11;;;;;;;5.55;4.60;;;31.80;99.30;;;;;;4143110;28;20430;-59
2023/08/04 09:16:13;;;;;;;4.07;3.70;;;31.90;99.20;;;;;;4144548;28;20068;-61
2023/08/04 09:18:25;;;;;;;5.97;4.18;;;32.00;99.70;;;;;;4143281;28;20180;-60
2023/08/04 09:20:28;;;;;;;7.47;4.32;;;32.00;99.40;;;;;;4144530;28;20041;-61
2023/08/04 09:22:31;;;;;;;9.10;4.70;;;32.10;99.20;;;;;;4143334;28;20041;-61
2023/08/04 09:24:33;;;;;;;5.28;4.45;;;32.10;99.20;;;;;;4144269;28;20096;-60
2023/08/04 09:26:43;;;;;;;4.82;4.40;;;32.00;98.80;;;;;;4143588;28;20041;-60
2023/08/04 09:28:44;;;;;;;4.50;3.85;;;31.90;99.00;;;;;;4144401;28;20034;-60
2023/08/04 09:31:01;;;;;;;5.00;4.20;;;31.90;99.00;;;;;;4142064;28;20026;-59
2023/08/04 09:33:02;;;;;;;5.65;4.90;;;32.00;99.10;;;;;;4144557;28;20100;-61
2023/08/04 09:35:05;;;;;;;5.65;4.22;;;32.10;99.30;;;;;;4143432;28;20045;-60
2023/08/04 09:37:06;;;;;;;4.93;4.22;;;32.10;98.80;;;;;;4144023;28;20054;-60
2023/08/04 09:39:09;;;;;;;5.03;4.25;;;32.10;98.70;;;;;;4143573;28;20096;-59
2023/08/04 09:41:13;;;;;;;7.22;4.93;;;32.10;98.90;;;;;;4143387;28;20084;-60
2023/08/04 09:43:20;;;;;;;7.72;4.00;;;32.20;99.10;;;;;;4143992;28;20037;-60
2023/08/04 09:45:21;;;;;;;5.85;4.85;;;32.20;99.00;;;;;;4143606;28;20099;-61
2023/08/04 09:47:27;;;;;;;5.25;4.75;;;32.20;99.00;;;;;;4144454;28;20092;-60
2023/08/04 09:49:29;;;;;;;5.45;4.35;;;32.10;99.20;;;;;;4143175;28;20092;-60
2023/08/04 09:51:40;;;;;;;6.78;4.40;;;32.20;98.90;;;;;;4142882;28;20034;-60
2023/08/04 09:53:45;;;;;;;5.50;4.97;;;32.10;99.10;;;;;;4141794;28;20026;-62
2023/08/04 09:55:47;;;;;;;5.38;4.88;;;32.20;99.30;;;;;;4143715;28;20097;-59
2023/08/04 09:57:48;;;;;;;5.60;4.78;;;32.20;99.30;;;;;;4142955;28;20038;-62
2023/08/04 09:59:50;;;;;;;7.85;5.30;;;32.30;99.10;;;;;;4144128;28;20034;-60
2023/08/04 10:01:52;;;;;;;9.05;5.30;;;32.20;99.10;;;;;;4143093;28;20225;-59
2023/08/04 10:03:57;;;;;;;5.25;4.60;;;32.20;99.00;;;;;;4144022;28;20095;-60
2023/08/04 10:06:03;;;;;;;6.57;4.93;;;32.10;99.10;;;;;;4143071;28;20096;-60
2023/08/04 10:08:06;;;;;;;7.03;4.95;;;32.20;99.10;;;;;;4144517;28;20026;-61
2023/08/04 10:10:09;;;;;;;6.97;5.32;;;32.10;99.00;;;;;;4143100;28;20026;-60
2023/08/04 10:12:12;;;;;;;5.43;4.93;;;32.20;99.10;;;;;;4142886;28;20038;-61
2023/08/04 10:14:14;;;;;;;7.93;4.95;;;32.00;99.10;;;;;;4144423;28;20034;-60
2023/08/04 10:16:18;;;;;;;6.85;5.07;;;32.10;99.10;;;;;;4147245;28;20029;-61
2023/08/04 10:18:19;;;;;;;5.55;4.85;;;32.20;99.00;;;;;;4146199;28;20088;-59
2023/08/04 10:20:21;;;;;;;7.22;4.68;;;32.30;99.10;;;;;;4146437;28;20029;-58
2023/08/04 10:22:23;;;;;;;6.00;4.93;;;32.30;98.70;;;;;;4144786;28;20034;-60
2023/08/04 10:24:24;;;;;;;7.07;4.90;;;32.20;99.00;;;;;;4144977;28;20038;-63
2023/08/04 10:26:25;;;;;;;9.25;5.00;;;32.10;98.50;;;;;;4146148;28;20042;-60
2023/08/04 10:28:26;;;;;;;8.13;5.13;;;32.10;98.70;;;;;;4145422;28;20100;-59